sensor_id;sensor_type;location;lat;lon;timestamp;pressure;altitude;pressure_sealevel;temperature;humidity
64717;BME280;51146;50.274;19.000;2022-08-19T00:01:58;97886.63;;;22.72;48.59
64717;BME280;51146;50.274;19.000;2022-08-19T00:04:32;97889.78;;;22.69;48.93
64717;BME280;51146;50.274;19.000;2022-08-19T00:07:00;97886.41;;;22.67;49.10
64717;BME280;51146;50.274;19.000;2022-08-19T00:09:28;97882.81;;;22.67;49.23
64717;BME280;51146;50.274;19.000;2022-08-19T00:11:56;97884.09;;;22.64;48.98
64717;BME280;51146;50.274;19.000;2022-08-19T00:14:26;97886.22;;;22.62;48.77
64717;BME280;51146;50.274;19.000;2022-08-19T00:16:53;97891.09;;;22.60;49.31
64717;BME280;51146;50.274;19.000;2022-08-19T00:19:22;97895.94;;;22.58;49.23
64717;BME280;51146;50.274;19.000;2022-08-19T00:21:49;97902.50;;;22.57;49.34
64717;BME280;51146;50.274;19.000;2022-08-19T00:24:16;97898.47;;;22.53;49.42
64717;BME280;51146;50.274;19.000;2022-08-19T00:26:43;97892.75;;;22.48;49.31
64717;BME280;51146;50.274;19.000;2022-08-19T00:29:13;97886.00;;;22.44;49.93
64717;BME280;51146;50.274;19.000;2022-08-19T00:31:44;97880.69;;;22.42;49.79
64717;BME280;51146;50.274;19.000;2022-08-19T00:34:12;97875.41;;;22.40;50.00
64717;BME280;51146;50.274;19.000;2022-08-19T00:36:40;97872.47;;;22.35;50.06
64717;BME280;51146;50.274;19.000;2022-08-19T00:39:08;97873.72;;;22.33;50.38
64717;BME280;51146;50.274;19.000;2022-08-19T00:41:35;97870.13;;;22.32;49.92
64717;BME280;51146;50.274;19.000;2022-08-19T00:44:14;97865.72;;;22.31;50.37
64717;BME280;51146;50.274;19.000;2022-08-19T00:46:44;97861.47;;;22.29;50.25
64717;BME280;51146;50.274;19.000;2022-08-19T00:49:29;97861.03;;;22.25;50.11
64717;BME280;51146;50.274;19.000;2022-08-19T00:52:05;97860.19;;;22.25;50.17
64717;BME280;51146;50.274;19.000;2022-08-19T00:54:33;97869.09;;;22.20;50.40
64717;BME280;51146;50.274;19.000;2022-08-19T00:57:01;97860.41;;;22.16;50.58
64717;BME280;51146;50.274;19.000;2022-08-19T00:59:30;97857.03;;;22.14;50.90
64717;BME280;51146;50.274;19.000;2022-08-19T01:02:17;97858.94;;;22.14;50.81
64717;BME280;51146;50.274;19.000;2022-08-19T01:04:44;97852.78;;;22.12;50.81
64717;BME280;51146;50.274;19.000;2022-08-19T01:07:11;97854.91;;;22.10;50.65
64717;BME280;51146;50.274;19.000;2022-08-19T01:09:45;97857.00;;;22.08;50.95
64717;BME280;51146;50.274;19.000;2022-08-19T01:12:12;97859.78;;;22.01;51.01
64717;BME280;51146;50.274;19.000;2022-08-19T01:14:39;97851.31;;;21.96;50.74
64717;BME280;51146;50.274;19.000;2022-08-19T01:17:09;97859.13;;;21.92;50.91
64717;BME280;51146;50.274;19.000;2022-08-19T01:19:40;97857.81;;;21.88;50.99
64717;BME280;51146;50.274;19.000;2022-08-19T01:24:59;97844.94;;;21.82;51.59
64717;BME280;51146;50.274;19.000;2022-08-19T01:27:27;97845.34;;;21.79;51.78
64717;BME280;51146;50.274;19.000;2022-08-19T01:30:10;97843.03;;;21.76;52.01
64717;BME280;51146;50.274;19.000;2022-08-19T01:32:38;97839.00;;;21.72;51.56
64717;BME280;51146;50.274;19.000;2022-08-19T01:35:05;97840.47;;;21.68;51.75
64717;BME280;51146;50.274;19.000;2022-08-19T01:37:49;97844.69;;;21.63;51.89
64717;BME280;51146;50.274;19.000;2022-08-19T01:40:16;97847.88;;;21.60;52.38
64717;BME280;51146;50.274;19.000;2022-08-19T01:42:43;97846.16;;;21.59;52.54
64717;BME280;51146;50.274;19.000;2022-08-19T01:45:10;97840.66;;;21.59;52.66
64717;BME280;51146;50.274;19.000;2022-08-19T01:47:38;97842.38;;;21.60;52.59
64717;BME280;51146;50.274;19.000;2022-08-19T01:50:07;97836.00;;;21.60;52.15
64717;BME280;51146;50.274;19.000;2022-08-19T01:52:35;97843.41;;;21.59;52.13
64717;BME280;51146;50.274;19.000;2022-08-19T01:55:03;97839.78;;;21.52;52.53
64717;BME280;51146;50.274;19.000;2022-08-19T01:57:30;97838.72;;;21.47;52.23
64717;BME280;51146;50.274;19.000;2022-08-19T01:59:56;97838.31;;;21.43;52.78
64717;BME280;51146;50.274;19.000;2022-08-19T02:02:23;97823.53;;;21.37;52.77
64717;BME280;51146;50.274;19.000;2022-08-19T02:04:51;97826.66;;;21.34;53.01
64717;BME280;51146;50.274;19.000;2022-08-19T02:07:21;97836.19;;;21.32;52.73
64717;BME280;51146;50.274;19.000;2022-08-19T02:09:48;97836.56;;;21.29;52.80
64717;BME280;51146;50.274;19.000;2022-08-19T02:12:15;97823.47;;;21.24;52.89
64717;BME280;51146;50.274;19.000;2022-08-19T02:14:42;97833.59;;;21.23;53.44
64717;BME280;51146;50.274;19.000;2022-08-19T02:17:09;97832.09;;;21.21;53.64
64717;BME280;51146;50.274;19.000;2022-08-19T02:19:36;97832.28;;;21.19;53.83
64717;BME280;51146;50.274;19.000;2022-08-19T02:22:07;97839.50;;;21.20;53.72
64717;BME280;51146;50.274;19.000;2022-08-19T02:24:33;97834.84;;;21.21;53.46
64717;BME280;51146;50.274;19.000;2022-08-19T02:27:00;97828.69;;;21.19;53.93
64717;BME280;51146;50.274;19.000;2022-08-19T02:29:27;97834.41;;;21.17;53.64
64717;BME280;51146;50.274;19.000;2022-08-19T02:31:54;97831.22;;;21.14;53.82
64717;BME280;51146;50.274;19.000;2022-08-19T02:34:21;97829.53;;;21.13;53.64
64717;BME280;51146;50.274;19.000;2022-08-19T02:36:47;97831.84;;;21.16;54.07
64717;BME280;51146;50.274;19.000;2022-08-19T02:39:17;97821.09;;;21.14;53.76
64717;BME280;51146;50.274;19.000;2022-08-19T02:41:45;97826.34;;;21.16;53.75
64717;BME280;51146;50.274;19.000;2022-08-19T02:44:12;97823.41;;;21.17;53.80
64717;BME280;51146;50.274;19.000;2022-08-19T02:46:56;97831.00;;;21.15;53.90
64717;BME280;51146;50.274;19.000;2022-08-19T02:49:24;97828.25;;;21.15;54.02
64717;BME280;51146;50.274;19.000;2022-08-19T02:51:51;97825.53;;;21.15;53.97
64717;BME280;51146;50.274;19.000;2022-08-19T02:54:18;97833.97;;;21.14;54.14
64717;BME280;51146;50.274;19.000;2022-08-19T02:56:45;97821.09;;;21.14;54.11
64717;BME280;51146;50.274;19.000;2022-08-19T02:59:13;97819.38;;;21.13;53.67
64717;BME280;51146;50.274;19.000;2022-08-19T03:01:41;97816.84;;;21.12;53.96
64717;BME280;51146;50.274;19.000;2022-08-19T03:04:11;97814.28;;;21.10;53.93
64717;BME280;51146;50.274;19.000;2022-08-19T03:06:41;97827.38;;;21.01;53.86
64717;BME280;51146;50.274;19.000;2022-08-19T03:09:10;97821.66;;;20.96;54.27
64717;BME280;51146;50.274;19.000;2022-08-19T03:11:37;97825.66;;;20.94;54.45
64717;BME280;51146;50.274;19.000;2022-08-19T03:14:05;97831.16;;;20.94;54.32
64717;BME280;51146;50.274;19.000;2022-08-19T03:16:39;97831.34;;;20.92;54.44
64717;BME280;51146;50.274;19.000;2022-08-19T03:19:06;97828.78;;;20.91;54.57
64717;BME280;51146;50.274;19.000;2022-08-19T03:21:36;97834.28;;;20.91;54.23
64717;BME280;51146;50.274;19.000;2022-08-19T03:24:08;97827.13;;;20.90;54.40
64717;BME280;51146;50.274;19.000;2022-08-19T03:26:44;97827.94;;;20.83;54.24
64717;BME280;51146;50.274;19.000;2022-08-19T03:29:12;97828.34;;;20.80;54.38
64717;BME280;51146;50.274;19.000;2022-08-19T03:31:41;97815.88;;;20.78;54.34
64717;BME280;51146;50.274;19.000;2022-08-19T03:34:25;97828.34;;;20.80;54.82
64717;BME280;51146;50.274;19.000;2022-08-19T03:36:58;97815.25;;;20.82;54.55
64717;BME280;51146;50.274;19.000;2022-08-19T03:39:26;97821.59;;;20.83;54.36
64717;BME280;51146;50.274;19.000;2022-08-19T03:41:54;97835.31;;;20.83;54.51
64717;BME280;51146;50.274;19.000;2022-08-19T03:44:46;97839.13;;;20.82;54.21
64717;BME280;51146;50.274;19.000;2022-08-19T03:47:13;97834.47;;;20.82;54.54
64717;BME280;51146;50.274;19.000;2022-08-19T03:49:42;97841.22;;;20.80;54.77
64717;BME280;51146;50.274;19.000;2022-08-19T03:52:09;97841.66;;;20.83;54.35
64717;BME280;51146;50.274;19.000;2022-08-19T03:54:37;97844.81;;;20.87;54.34
64717;BME280;51146;50.274;19.000;2022-08-19T03:57:05;97837.66;;;20.86;54.47
64717;BME280;51146;50.274;19.000;2022-08-19T03:59:33;97840.59;;;20.84;54.34
64717;BME280;51146;50.274;19.000;2022-08-19T04:02:05;97849.66;;;20.85;54.65
64717;BME280;51146;50.274;19.000;2022-08-19T04:04:36;97849.91;;;20.83;54.43
64717;BME280;51146;50.274;19.000;2022-08-19T04:07:04;97849.25;;;20.81;54.10
64717;BME280;51146;50.274;19.000;2022-08-19T04:09:33;97849.03;;;20.83;53.93
64717;BME280;51146;50.274;19.000;2022-08-19T04:12:00;97858.13;;;20.83;54.06
64717;BME280;51146;50.274;19.000;2022-08-19T04:14:28;97862.09;;;20.81;53.99
64717;BME280;51146;50.274;19.000;2022-08-19T04:16:59;97864.00;;;20.80;53.75
64717;BME280;51146;50.274;19.000;2022-08-19T04:19:28;97862.75;;;20.83;54.39
64717;BME280;51146;50.274;19.000;2022-08-19T04:21:56;97863.84;;;20.89;54.00
64717;BME280;51146;50.274;19.000;2022-08-19T04:24:23;97866.00;;;20.93;54.20
64717;BME280;51146;50.274;19.000;2022-08-19T04:26:51;97874.88;;;20.95;53.89
64717;BME280;51146;50.274;19.000;2022-08-19T04:29:21;97879.53;;;21.01;54.04
64717;BME280;51146;50.274;19.000;2022-08-19T04:31:52;97883.81;;;21.11;54.16
64717;BME280;51146;50.274;19.000;2022-08-19T04:34:21;97885.09;;;21.21;53.78
64717;BME280;51146;50.274;19.000;2022-08-19T04:36:52;97894.69;;;21.32;53.75
64717;BME280;51146;50.274;19.000;2022-08-19T04:39:22;97892.19;;;21.44;53.69
64717;BME280;51146;50.274;19.000;2022-08-19T04:42:10;97899.00;;;21.55;53.16
64717;BME280;51146;50.274;19.000;2022-08-19T04:44:56;97895.00;;;21.64;53.11
64717;BME280;51146;50.274;19.000;2022-08-19T04:47:25;97891.00;;;21.73;52.90
64717;BME280;51146;50.274;19.000;2022-08-19T04:50:12;97900.94;;;21.81;52.34
64717;BME280;51146;50.274;19.000;2022-08-19T04:52:39;97898.44;;;21.79;52.24
64717;BME280;51146;50.274;19.000;2022-08-19T04:55:10;97888.69;;;21.77;51.73
64717;BME280;51146;50.274;19.000;2022-08-19T04:57:37;97892.28;;;21.77;52.00
64717;BME280;51146;50.274;19.000;2022-08-19T05:00:10;97897.34;;;21.80;51.91
64717;BME280;51146;50.274;19.000;2022-08-19T05:02:38;97893.13;;;21.85;51.65
64717;BME280;51146;50.274;19.000;2022-08-19T05:05:04;97880.25;;;21.85;51.51
64717;BME280;51146;50.274;19.000;2022-08-19T05:07:34;97887.44;;;21.86;51.61
64717;BME280;51146;50.274;19.000;2022-08-19T05:10:01;97893.56;;;21.88;51.49
64717;BME280;51146;50.274;19.000;2022-08-19T05:12:28;97890.81;;;21.88;51.15
64717;BME280;51146;50.274;19.000;2022-08-19T05:14:57;97887.88;;;21.90;51.40
64717;BME280;51146;50.274;19.000;2022-08-19T05:17:25;97889.56;;;21.91;51.08
64717;BME280;51146;50.274;19.000;2022-08-19T05:19:55;97891.44;;;21.90;50.58
64717;BME280;51146;50.274;19.000;2022-08-19T05:22:41;97894.19;;;21.90;50.97
64717;BME280;51146;50.274;19.000;2022-08-19T05:25:12;97896.13;;;21.96;50.84
64717;BME280;51146;50.274;19.000;2022-08-19T05:27:41;97891.50;;;22.04;51.12
64717;BME280;51146;50.274;19.000;2022-08-19T05:30:09;97895.94;;;22.11;50.40
64717;BME280;51146;50.274;19.000;2022-08-19T05:32:36;97904.41;;;22.16;50.44
64717;BME280;51146;50.274;19.000;2022-08-19T05:35:04;97906.13;;;22.24;50.66
64717;BME280;51146;50.274;19.000;2022-08-19T05:37:31;97908.84;;;22.31;50.35
64717;BME280;51146;50.274;19.000;2022-08-19T05:39:58;97907.16;;;22.36;50.07
64717;BME280;51146;50.274;19.000;2022-08-19T05:42:27;97909.50;;;22.39;50.22
64717;BME280;51146;50.274;19.000;2022-08-19T05:44:54;97910.56;;;22.45;50.07
64717;BME280;51146;50.274;19.000;2022-08-19T05:47:22;97908.22;;;22.49;49.70
64717;BME280;51146;50.274;19.000;2022-08-19T05:49:49;97910.97;;;22.55;49.54
64717;BME280;51146;50.274;19.000;2022-08-19T05:52:18;97907.38;;;22.62;49.53
64717;BME280;51146;50.274;19.000;2022-08-19T05:54:52;97907.19;;;22.70;49.33
64717;BME280;51146;50.274;19.000;2022-08-19T05:57:22;97904.41;;;22.76;49.71
64717;BME280;51146;50.274;19.000;2022-08-19T05:59:50;97906.91;;;22.85;49.00
64717;BME280;51146;50.274;19.000;2022-08-19T06:02:27;97908.59;;;22.92;49.13
64717;BME280;51146;50.274;19.000;2022-08-19T06:04:55;97907.72;;;23.05;48.81
64717;BME280;51146;50.274;19.000;2022-08-19T06:07:22;97914.47;;;23.16;48.75
64717;BME280;51146;50.274;19.000;2022-08-19T06:09:48;97918.47;;;23.27;48.34
64717;BME280;51146;50.274;19.000;2022-08-19T06:12:27;97919.31;;;23.34;48.14
64717;BME280;51146;50.274;19.000;2022-08-19T06:14:59;97916.97;;;23.37;48.08
64717;BME280;51146;50.274;19.000;2022-08-19T06:17:28;97914.81;;;23.40;47.75
64717;BME280;51146;50.274;19.000;2022-08-19T06:19:57;97922.47;;;23.44;47.32
64717;BME280;51146;50.274;19.000;2022-08-19T06:22:25;97923.09;;;23.46;47.68
64717;BME280;51146;50.274;19.000;2022-08-19T06:24:52;97924.13;;;23.52;47.40
64717;BME280;51146;50.274;19.000;2022-08-19T06:27:21;97924.91;;;23.59;47.25
64717;BME280;51146;50.274;19.000;2022-08-19T06:29:48;97918.91;;;23.69;47.06
64717;BME280;51146;50.274;19.000;2022-08-19T06:32:16;97925.25;;;23.76;46.76
64717;BME280;51146;50.274;19.000;2022-08-19T06:34:44;97923.09;;;23.85;46.52
64717;BME280;51146;50.274;19.000;2022-08-19T06:37:11;97925.81;;;23.91;46.18
64717;BME280;51146;50.274;19.000;2022-08-19T06:39:40;97931.53;;;23.96;46.02
64717;BME280;51146;50.274;19.000;2022-08-19T06:42:07;97932.97;;;23.99;45.73
64717;BME280;51146;50.274;19.000;2022-08-19T06:44:39;97931.06;;;24.00;46.10
64717;BME280;51146;50.274;19.000;2022-08-19T06:47:14;97934.91;;;23.99;46.02
64717;BME280;51146;50.274;19.000;2022-08-19T06:49:58;97947.81;;;24.05;45.99
64717;BME280;51146;50.274;19.000;2022-08-19T06:52:32;97942.25;;;24.11;46.05
64717;BME280;51146;50.274;19.000;2022-08-19T06:55:03;97944.94;;;24.18;45.75
64717;BME280;51146;50.274;19.000;2022-08-19T06:57:31;97954.47;;;24.22;45.54
64717;BME280;51146;50.274;19.000;2022-08-19T06:59:59;97957.19;;;24.29;45.43
64717;BME280;51146;50.274;19.000;2022-08-19T07:02:26;97951.63;;;24.35;45.49
64717;BME280;51146;50.274;19.000;2022-08-19T07:04:53;97958.78;;;24.43;45.49
64717;BME280;51146;50.274;19.000;2022-08-19T07:07:20;97959.78;;;24.49;45.27
64717;BME280;51146;50.274;19.000;2022-08-19T07:09:50;97959.78;;;24.56;45.51
64717;BME280;51146;50.274;19.000;2022-08-19T07:12:30;97962.44;;;24.69;45.07
64717;BME280;51146;50.274;19.000;2022-08-19T07:15:06;97969.13;;;24.80;44.85
64717;BME280;51146;50.274;19.000;2022-08-19T07:17:35;97978.81;;;24.89;44.51
64717;BME280;51146;50.274;19.000;2022-08-19T07:20:06;97983.03;;;24.91;44.04
64717;BME280;51146;50.274;19.000;2022-08-19T07:22:36;97985.13;;;24.96;43.66
64717;BME280;51146;50.274;19.000;2022-08-19T07:25:06;97994.63;;;25.00;44.23
64717;BME280;51146;50.274;19.000;2022-08-19T07:27:33;97983.97;;;25.04;43.68
64717;BME280;51146;50.274;19.000;2022-08-19T07:30:00;97992.19;;;25.10;43.49
64717;BME280;51146;50.274;19.000;2022-08-19T07:32:27;97995.16;;;25.16;43.58
64717;BME280;51146;50.274;19.000;2022-08-19T07:34:55;97998.69;;;25.23;43.59
64717;BME280;51146;50.274;19.000;2022-08-19T07:37:23;98000.53;;;25.29;43.21
64717;BME280;51146;50.274;19.000;2022-08-19T07:39:59;97994.47;;;25.39;43.32
64717;BME280;51146;50.274;19.000;2022-08-19T07:42:26;98001.41;;;25.48;42.74
64717;BME280;51146;50.274;19.000;2022-08-19T07:44:54;98001.47;;;25.60;42.94
64717;BME280;51146;50.274;19.000;2022-08-19T07:47:21;98003.00;;;25.74;42.94
64717;BME280;51146;50.274;19.000;2022-08-19T07:50:09;98003.00;;;25.93;42.28
64717;BME280;51146;50.274;19.000;2022-08-19T07:52:38;98011.56;;;26.03;42.48
64717;BME280;51146;50.274;19.000;2022-08-19T07:55:08;98010.56;;;26.16;42.29
64717;BME280;51146;50.274;19.000;2022-08-19T07:57:55;98011.59;;;26.33;42.41
64717;BME280;51146;50.274;19.000;2022-08-19T08:00:22;98008.03;;;26.44;41.83
64717;BME280;51146;50.274;19.000;2022-08-19T08:02:50;98009.25;;;26.60;41.58
64717;BME280;51146;50.274;19.000;2022-08-19T08:05:20;98008.81;;;26.75;40.96
64717;BME280;51146;50.274;19.000;2022-08-19T08:08:10;98009.94;;;26.86;40.83
64717;BME280;51146;50.274;19.000;2022-08-19T08:10:56;98018.28;;;26.98;40.64
64717;BME280;51146;50.274;19.000;2022-08-19T08:13:23;98015.63;;;27.03;39.97
64717;BME280;51146;50.274;19.000;2022-08-19T08:15:52;98010.44;;;27.06;40.43
64717;BME280;51146;50.274;19.000;2022-08-19T08:18:21;98013.22;;;27.06;39.99
64717;BME280;51146;50.274;19.000;2022-08-19T08:20:54;98019.63;;;27.07;39.81
64717;BME280;51146;50.274;19.000;2022-08-19T08:23:21;98016.09;;;27.12;39.67
64717;BME280;51146;50.274;19.000;2022-08-19T08:25:57;98019.38;;;27.20;40.59
64717;BME280;51146;50.274;19.000;2022-08-19T08:28:25;98015.50;;;27.33;40.02
64717;BME280;51146;50.274;19.000;2022-08-19T08:30:56;98015.75;;;27.43;40.17
64717;BME280;51146;50.274;19.000;2022-08-19T08:33:25;98001.66;;;27.57;39.78
64717;BME280;51146;50.274;19.000;2022-08-19T08:36:00;98010.19;;;27.67;39.59
64717;BME280;51146;50.274;19.000;2022-08-19T08:38:29;98003.53;;;27.80;39.60
64717;BME280;51146;50.274;19.000;2022-08-19T08:41:18;98002.28;;;27.88;38.83
64717;BME280;51146;50.274;19.000;2022-08-19T08:43:49;98006.59;;;27.95;38.81
64717;BME280;51146;50.274;19.000;2022-08-19T08:46:41;98016.94;;;28.40;38.64
64717;BME280;51146;50.274;19.000;2022-08-19T08:52:11;98002.09;;;29.31;37.00
64717;BME280;51146;50.274;19.000;2022-08-19T08:54:43;97994.59;;;29.54;36.67
64717;BME280;51146;50.274;19.000;2022-08-19T08:57:35;97995.97;;;29.68;36.20
64717;BME280;51146;50.274;19.000;2022-08-19T09:00:15;97984.03;;;29.73;36.27
64717;BME280;51146;50.274;19.000;2022-08-19T09:02:43;97980.50;;;29.77;35.67
64717;BME280;51146;50.274;19.000;2022-08-19T09:05:17;97968.81;;;29.81;35.85
64717;BME280;51146;50.274;19.000;2022-08-19T09:10:40;97973.38;;;29.87;35.85
64717;BME280;51146;50.274;19.000;2022-08-19T09:16:00;97974.84;;;29.72;35.76
64717;BME280;51146;50.274;19.000;2022-08-19T09:18:51;97975.66;;;29.68;35.48
64717;BME280;51146;50.274;19.000;2022-08-19T09:21:22;97987.38;;;29.53;35.93
64717;BME280;51146;50.274;19.000;2022-08-19T09:23:58;97979.47;;;29.45;36.11
64717;BME280;51146;50.274;19.000;2022-08-19T09:26:26;97984.19;;;29.44;36.57
64717;BME280;51146;50.274;19.000;2022-08-19T09:29:13;97981.03;;;29.57;36.14
64717;BME280;51146;50.274;19.000;2022-08-19T09:31:40;97988.44;;;29.69;35.27
64717;BME280;51146;50.274;19.000;2022-08-19T09:34:07;97993.75;;;29.70;35.23
64717;BME280;51146;50.274;19.000;2022-08-19T09:36:47;97994.84;;;29.69;35.16
64717;BME280;51146;50.274;19.000;2022-08-19T09:39:20;97987.59;;;29.68;35.35
64717;BME280;51146;50.274;19.000;2022-08-19T09:41:47;97990.72;;;29.72;35.44
64717;BME280;51146;50.274;19.000;2022-08-19T09:44:14;97996.66;;;29.81;35.13
64717;BME280;51146;50.274;19.000;2022-08-19T09:46:44;97999.44;;;29.81;34.31
64717;BME280;51146;50.274;19.000;2022-08-19T09:49:15;97997.13;;;29.72;33.70
64717;BME280;51146;50.274;19.000;2022-08-19T09:51:44;97997.63;;;29.69;34.40
64717;BME280;51146;50.274;19.000;2022-08-19T09:54:17;97993.88;;;29.81;34.45
64717;BME280;51146;50.274;19.000;2022-08-19T09:56:51;97988.44;;;29.91;33.99
64717;BME280;51146;50.274;19.000;2022-08-19T09:59:18;97997.16;;;29.99;33.87
64717;BME280;51146;50.274;19.000;2022-08-19T10:01:44;97991.03;;;30.20;33.86
64717;BME280;51146;50.274;19.000;2022-08-19T10:04:11;97994.38;;;30.49;33.48
64717;BME280;51146;50.274;19.000;2022-08-19T10:06:46;97997.16;;;30.76;32.76
64717;BME280;51146;50.274;19.000;2022-08-19T10:09:18;97991.13;;;30.89;32.58
64717;BME280;51146;50.274;19.000;2022-08-19T10:11:58;97994.19;;;31.20;32.33
64717;BME280;51146;50.274;19.000;2022-08-19T10:14:28;97988.66;;;31.73;31.53
64717;BME280;51146;50.274;19.000;2022-08-19T10:17:00;97999.00;;;32.66;29.89
64717;BME280;51146;50.274;19.000;2022-08-19T10:19:45;97984.66;;;33.55;28.52
64717;BME280;51146;50.274;19.000;2022-08-19T10:22:23;97990.69;;;34.53;27.00
64717;BME280;51146;50.274;19.000;2022-08-19T10:24:51;97993.53;;;35.46;25.85
64717;BME280;51146;50.274;19.000;2022-08-19T10:27:18;97997.50;;;36.36;25.27
64717;BME280;51146;50.274;19.000;2022-08-19T10:29:45;97999.09;;;37.13;24.34
64717;BME280;51146;50.274;19.000;2022-08-19T10:32:12;97988.38;;;37.76;22.98
64717;BME280;51146;50.274;19.000;2022-08-19T10:34:39;97987.66;;;38.12;22.24
64717;BME280;51146;50.274;19.000;2022-08-19T10:37:15;97980.19;;;38.30;21.96
64717;BME280;51146;50.274;19.000;2022-08-19T10:39:54;97983.56;;;38.18;21.75
64717;BME280;51146;50.274;19.000;2022-08-19T10:42:21;97973.88;;;37.97;21.69
64717;BME280;51146;50.274;19.000;2022-08-19T10:44:48;97980.84;;;38.13;21.85
64717;BME280;51146;50.274;19.000;2022-08-19T10:47:17;97972.06;;;38.65;21.48
64717;BME280;51146;50.274;19.000;2022-08-19T10:49:52;97971.19;;;39.01;21.12
64717;BME280;51146;50.274;19.000;2022-08-19T10:52:43;97973.91;;;39.15;20.86
64717;BME280;51146;50.274;19.000;2022-08-19T10:55:18;97957.38;;;38.99;20.88
64717;BME280;51146;50.274;19.000;2022-08-19T10:58:10;97954.97;;;39.38;20.65
64717;BME280;51146;50.274;19.000;2022-08-19T11:00:37;97958.75;;;40.13;19.92
64717;BME280;51146;50.274;19.000;2022-08-19T11:03:04;97951.78;;;40.80;19.67
64717;BME280;51146;50.274;19.000;2022-08-19T11:05:30;97940.13;;;40.91;19.42
64717;BME280;51146;50.274;19.000;2022-08-19T11:08:05;97945.13;;;40.41;19.57
64717;BME280;51146;50.274;19.000;2022-08-19T11:10:51;97936.97;;;39.65;20.05
64717;BME280;51146;50.274;19.000;2022-08-19T11:13:20;97937.19;;;39.06;20.58
64717;BME280;51146;50.274;19.000;2022-08-19T11:15:47;97946.81;;;38.60;20.70
64717;BME280;51146;50.274;19.000;2022-08-19T11:18:14;97952.88;;;38.17;21.25
64717;BME280;51146;50.274;19.000;2022-08-19T11:20:40;97949.22;;;37.88;21.48
64717;BME280;51146;50.274;19.000;2022-08-19T11:23:08;97954.22;;;37.50;21.92
64717;BME280;51146;50.274;19.000;2022-08-19T11:25:38;97950.63;;;37.03;22.03
64717;BME280;51146;50.274;19.000;2022-08-19T11:28:05;97941.72;;;36.63;22.37
64717;BME280;51146;50.274;19.000;2022-08-19T11:30:33;97950.00;;;36.35;22.73
64717;BME280;51146;50.274;19.000;2022-08-19T11:33:00;97938.31;;;36.09;23.31
64717;BME280;51146;50.274;19.000;2022-08-19T11:35:27;97945.56;;;35.91;23.08
64717;BME280;51146;50.274;19.000;2022-08-19T11:37:54;97947.03;;;35.83;23.32
64717;BME280;51146;50.274;19.000;2022-08-19T11:40:22;97935.41;;;35.71;23.64
64717;BME280;51146;50.274;19.000;2022-08-19T11:42:49;97946.13;;;35.69;23.62
64717;BME280;51146;50.274;19.000;2022-08-19T11:45:26;97947.59;;;35.85;23.89
64717;BME280;51146;50.274;19.000;2022-08-19T11:47:53;97952.81;;;36.54;23.00
64717;BME280;51146;50.274;19.000;2022-08-19T11:50:21;97950.19;;;36.95;21.98
64717;BME280;51146;50.274;19.000;2022-08-19T11:52:49;97958.31;;;37.30;21.63
64717;BME280;51146;50.274;19.000;2022-08-19T11:55:19;97941.63;;;37.20;20.79
64717;BME280;51146;50.274;19.000;2022-08-19T11:57:46;97956.09;;;36.94;20.99
64717;BME280;51146;50.274;19.000;2022-08-19T12:00:13;97950.53;;;36.56;21.95
64717;BME280;51146;50.274;19.000;2022-08-19T12:02:40;97953.25;;;36.23;21.95
64717;BME280;51146;50.274;19.000;2022-08-19T12:05:07;97949.22;;;35.91;22.42
64717;BME280;51146;50.274;19.000;2022-08-19T12:07:39;97945.00;;;35.40;22.58
64717;BME280;51146;50.274;19.000;2022-08-19T12:10:08;97946.00;;;34.96;23.59
64717;BME280;51146;50.274;19.000;2022-08-19T12:12:36;97939.03;;;34.59;23.80
64717;BME280;51146;50.274;19.000;2022-08-19T12:15:09;97943.44;;;34.31;24.09
64717;BME280;51146;50.274;19.000;2022-08-19T12:17:38;97949.97;;;34.16;24.46
64717;BME280;51146;50.274;19.000;2022-08-19T12:20:06;97943.88;;;33.99;24.61
64717;BME280;51146;50.274;19.000;2022-08-19T12:22:34;97947.91;;;33.77;25.21
64717;BME280;51146;50.274;19.000;2022-08-19T12:25:01;97932.00;;;33.67;25.57
64717;BME280;51146;50.274;19.000;2022-08-19T12:27:29;97933.63;;;33.79;25.11
64717;BME280;51146;50.274;19.000;2022-08-19T12:30:09;97931.56;;;33.95;24.93
64717;BME280;51146;50.274;19.000;2022-08-19T12:32:37;97931.53;;;34.05;24.69
64717;BME280;51146;50.274;19.000;2022-08-19T12:35:06;97920.00;;;34.17;24.50
64717;BME280;51146;50.274;19.000;2022-08-19T12:37:33;97922.28;;;34.10;24.49
64717;BME280;51146;50.274;19.000;2022-08-19T12:40:00;97919.53;;;33.99;24.56
64717;BME280;51146;50.274;19.000;2022-08-19T12:42:27;97912.31;;;33.88;24.91
64717;BME280;51146;50.274;19.000;2022-08-19T12:44:54;97915.19;;;33.73;25.65
64717;BME280;51146;50.274;19.000;2022-08-19T12:47:21;97908.50;;;33.69;25.40
64717;BME280;51146;50.274;19.000;2022-08-19T12:50:10;97907.59;;;33.78;25.87
64717;BME280;51146;50.274;19.000;2022-08-19T12:52:36;97906.47;;;34.24;26.18
64717;BME280;51146;50.274;19.000;2022-08-19T12:55:10;97891.78;;;34.77;25.57
64717;BME280;51146;50.274;19.000;2022-08-19T12:57:38;97897.38;;;35.35;24.77
64717;BME280;51146;50.274;19.000;2022-08-19T13:00:12;97896.59;;;35.97;24.20
64717;BME280;51146;50.274;19.000;2022-08-19T13:02:42;97895.81;;;36.48;23.19
64717;BME280;51146;50.274;19.000;2022-08-19T13:05:16;97891.59;;;37.11;22.60
64717;BME280;51146;50.274;19.000;2022-08-19T13:07:43;97895.09;;;37.50;22.16
64717;BME280;51146;50.274;19.000;2022-08-19T13:10:16;97893.41;;;37.77;22.02
64717;BME280;51146;50.274;19.000;2022-08-19T13:12:49;97889.53;;;37.86;21.31
64717;BME280;51146;50.274;19.000;2022-08-19T13:15:18;97894.28;;;37.63;21.74
64717;BME280;51146;50.274;19.000;2022-08-19T13:17:52;97889.00;;;37.15;22.05
64717;BME280;51146;50.274;19.000;2022-08-19T13:20:20;97899.09;;;36.69;22.79